sensor_id;sensor_type;location;lat;lon;timestamp;P1;durP1;ratioP1;P2;durP2;ratioP2
7719;SDS011;3902;49.474;8.616;2023-08-20T00:00:06;4.87;;;3.93;;
7719;SDS011;3902;49.474;8.616;2023-08-20T00:02:33;4.67;;;3.97;;
7719;SDS011;3902;49.474;8.616;2023-08-20T00:05:02;4.27;;;3.87;;
7719;SDS011;3902;49.474;8.616;2023-08-20T00:07:29;4.30;;;3.90;;
7719;SDS011;3902;49.474;8.616;2023-08-20T00:09:55;4.50;;;4.10;;
7719;SDS011;3902;49.474;8.616;2023-08-20T00:12:21;4.70;;;4.30;;
7719;SDS011;3902;49.474;8.616;2023-08-20T00:15:00;4.13;;;3.80;;
7719;SDS011;3902;49.474;8.616;2023-08-20T00:17:31;4.93;;;4.43;;
7719;SDS011;3902;49.474;8.616;2023-08-20T00:19:58;4.13;;;3.83;;
7719;SDS011;3902;49.474;8.616;2023-08-20T00:22:25;9.13;;;3.90;;
7719;SDS011;3902;49.474;8.616;2023-08-20T00:24:52;3.90;;;3.50;;
7719;SDS011;3902;49.474;8.616;2023-08-20T00:27:18;4.17;;;3.83;;
7719;SDS011;3902;49.474;8.616;2023-08-20T00:29:44;3.90;;;3.50;;
7719;SDS011;3902;49.474;8.616;2023-08-20T00:32:10;4.87;;;3.53;;
7719;SDS011;3902;49.474;8.616;2023-08-20T00:34:35;4.90;;;4.40;;
7719;SDS011;3902;49.474;8.616;2023-08-20T00:37:01;5.70;;;4.20;;
7719;SDS011;3902;49.474;8.616;2023-08-20T00:39:28;4.00;;;3.70;;
7719;SDS011;3902;49.474;8.616;2023-08-20T00:41:54;4.17;;;3.77;;
7719;SDS011;3902;49.474;8.616;2023-08-20T00:44:19;4.77;;;4.37;;
7719;SDS011;3902;49.474;8.616;2023-08-20T00:46:45;3.93;;;3.63;;
7719;SDS011;3902;49.474;8.616;2023-08-20T00:49:11;4.27;;;3.87;;
7719;SDS011;3902;49.474;8.616;2023-08-20T00:51:36;4.30;;;3.90;;
7719;SDS011;3902;49.474;8.616;2023-08-20T00:54:03;4.37;;;3.97;;
7719;SDS011;3902;49.474;8.616;2023-08-20T00:56:28;3.90;;;3.60;;
7719;SDS011;3902;49.474;8.616;2023-08-20T00:58:54;4.77;;;3.83;;
7719;SDS011;3902;49.474;8.616;2023-08-20T01:01:20;4.80;;;4.40;;
7719;SDS011;3902;49.474;8.616;2023-08-20T01:03:47;4.30;;;3.90;;
7719;SDS011;3902;49.474;8.616;2023-08-20T01:06:17;5.43;;;4.63;;
7719;SDS011;3902;49.474;8.616;2023-08-20T01:08:57;4.17;;;3.87;;
7719;SDS011;3902;49.474;8.616;2023-08-20T01:11:29;4.10;;;3.60;;
7719;SDS011;3902;49.474;8.616;2023-08-20T01:14:02;4.60;;;4.20;;
7719;SDS011;3902;49.474;8.616;2023-08-20T01:16:27;4.40;;;4.00;;
7719;SDS011;3902;49.474;8.616;2023-08-20T01:18:53;4.73;;;4.33;;
7719;SDS011;3902;49.474;8.616;2023-08-20T01:21:37;4.93;;;4.53;;
7719;SDS011;3902;49.474;8.616;2023-08-20T01:30:09;4.40;;;4.00;;
7719;SDS011;3902;49.474;8.616;2023-08-20T01:32:36;4.40;;;4.00;;
7719;SDS011;3902;49.474;8.616;2023-08-20T01:35:03;5.17;;;4.47;;
7719;SDS011;3902;49.474;8.616;2023-08-20T01:37:29;5.80;;;4.47;;
7719;SDS011;3902;49.474;8.616;2023-08-20T01:39:54;5.47;;;4.30;;
7719;SDS011;3902;49.474;8.616;2023-08-20T01:42:20;5.03;;;4.57;;
7719;SDS011;3902;49.474;8.616;2023-08-20T01:44:45;4.63;;;4.20;;
7719;SDS011;3902;49.474;8.616;2023-08-20T01:47:11;4.60;;;4.03;;
7719;SDS011;3902;49.474;8.616;2023-08-20T01:49:36;5.43;;;4.90;;
7719;SDS011;3902;49.474;8.616;2023-08-20T01:52:02;6.87;;;4.60;;
7719;SDS011;3902;49.474;8.616;2023-08-20T01:54:28;4.60;;;4.20;;
7719;SDS011;3902;49.474;8.616;2023-08-20T01:56:54;4.93;;;4.53;;
7719;SDS011;3902;49.474;8.616;2023-08-20T01:59:21;4.87;;;4.47;;
7719;SDS011;3902;49.474;8.616;2023-08-20T02:01:47;4.83;;;4.43;;
7719;SDS011;3902;49.474;8.616;2023-08-20T02:04:12;7.40;;;4.90;;
7719;SDS011;3902;49.474;8.616;2023-08-20T02:06:38;4.70;;;4.30;;
7719;SDS011;3902;49.474;8.616;2023-08-20T02:09:03;6.23;;;4.50;;
7719;SDS011;3902;49.474;8.616;2023-08-20T02:11:29;4.80;;;4.40;;
7719;SDS011;3902;49.474;8.616;2023-08-20T02:13:57;4.53;;;4.13;;
7719;SDS011;3902;49.474;8.616;2023-08-20T02:16:23;5.40;;;4.50;;
7719;SDS011;3902;49.474;8.616;2023-08-20T02:18:48;5.13;;;4.73;;
7719;SDS011;3902;49.474;8.616;2023-08-20T02:21:14;4.50;;;3.93;;
7719;SDS011;3902;49.474;8.616;2023-08-20T02:23:39;5.20;;;4.80;;
7719;SDS011;3902;49.474;8.616;2023-08-20T02:26:05;5.70;;;5.10;;
7719;SDS011;3902;49.474;8.616;2023-08-20T02:28:30;5.70;;;5.10;;
7719;SDS011;3902;49.474;8.616;2023-08-20T02:30:56;4.97;;;4.57;;
7719;SDS011;3902;49.474;8.616;2023-08-20T02:33:22;6.30;;;4.90;;
7719;SDS011;3902;49.474;8.616;2023-08-20T02:35:47;6.57;;;5.30;;
7719;SDS011;3902;49.474;8.616;2023-08-20T02:38:13;5.47;;;4.93;;
7719;SDS011;3902;49.474;8.616;2023-08-20T02:40:43;5.30;;;4.80;;
7719;SDS011;3902;49.474;8.616;2023-08-20T02:43:08;5.07;;;4.67;;
7719;SDS011;3902;49.474;8.616;2023-08-20T02:45:39;5.70;;;4.90;;
7719;SDS011;3902;49.474;8.616;2023-08-20T02:48:06;6.20;;;4.80;;
7719;SDS011;3902;49.474;8.616;2023-08-20T02:50:31;4.93;;;4.50;;
7719;SDS011;3902;49.474;8.616;2023-08-20T02:52:57;6.23;;;4.40;;
7719;SDS011;3902;49.474;8.616;2023-08-20T02:55:22;5.60;;;4.97;;
7719;SDS011;3902;49.474;8.616;2023-08-20T02:57:48;5.00;;;4.60;;
7719;SDS011;3902;49.474;8.616;2023-08-20T03:00:13;5.20;;;4.70;;
7719;SDS011;3902;49.474;8.616;2023-08-20T03:02:39;6.17;;;5.17;;
7719;SDS011;3902;49.474;8.616;2023-08-20T03:05:06;5.53;;;5.13;;
7719;SDS011;3902;49.474;8.616;2023-08-20T03:07:33;5.77;;;5.17;;
7719;SDS011;3902;49.474;8.616;2023-08-20T03:09:59;8.80;;;4.83;;
7719;SDS011;3902;49.474;8.616;2023-08-20T03:12:25;5.97;;;5.37;;
7719;SDS011;3902;49.474;8.616;2023-08-20T03:14:50;8.20;;;5.00;;
7719;SDS011;3902;49.474;8.616;2023-08-20T03:17:16;6.00;;;4.87;;
7719;SDS011;3902;49.474;8.616;2023-08-20T03:19:53;5.40;;;4.87;;
7719;SDS011;3902;49.474;8.616;2023-08-20T03:22:20;5.77;;;5.13;;
7719;SDS011;3902;49.474;8.616;2023-08-20T03:24:45;5.07;;;4.60;;
7719;SDS011;3902;49.474;8.616;2023-08-20T03:27:11;5.53;;;4.87;;
7719;SDS011;3902;49.474;8.616;2023-08-20T03:29:37;5.43;;;5.03;;
7719;SDS011;3902;49.474;8.616;2023-08-20T03:32:02;5.23;;;4.83;;
7719;SDS011;3902;49.474;8.616;2023-08-20T03:34:28;8.60;;;5.40;;
7719;SDS011;3902;49.474;8.616;2023-08-20T03:36:53;5.90;;;5.40;;
7719;SDS011;3902;49.474;8.616;2023-08-20T03:39:19;4.50;;;4.10;;
7719;SDS011;3902;49.474;8.616;2023-08-20T03:41:44;5.63;;;5.13;;
7719;SDS011;3902;49.474;8.616;2023-08-20T03:44:10;6.20;;;5.70;;
7719;SDS011;3902;49.474;8.616;2023-08-20T03:46:35;4.90;;;4.50;;
7719;SDS011;3902;49.474;8.616;2023-08-20T03:49:01;5.20;;;4.70;;
7719;SDS011;3902;49.474;8.616;2023-08-20T03:51:26;5.40;;;4.90;;
7719;SDS011;3902;49.474;8.616;2023-08-20T03:53:52;5.43;;;5.03;;
7719;SDS011;3902;49.474;8.616;2023-08-20T03:56:17;5.33;;;4.83;;
7719;SDS011;3902;49.474;8.616;2023-08-20T03:58:43;5.33;;;4.93;;
7719;SDS011;3902;49.474;8.616;2023-08-20T04:01:08;5.97;;;5.33;;
7719;SDS011;3902;49.474;8.616;2023-08-20T04:03:34;6.50;;;5.73;;
7719;SDS011;3902;49.474;8.616;2023-08-20T04:05:59;8.17;;;5.57;;
7719;SDS011;3902;49.474;8.616;2023-08-20T04:08:25;7.07;;;5.17;;
7719;SDS011;3902;49.474;8.616;2023-08-20T04:10:51;7.27;;;5.17;;
7719;SDS011;3902;49.474;8.616;2023-08-20T04:13:17;5.43;;;4.93;;
7719;SDS011;3902;49.474;8.616;2023-08-20T04:15:43;5.90;;;5.30;;
7719;SDS011;3902;49.474;8.616;2023-08-20T04:18:09;6.67;;;5.00;;
7719;SDS011;3902;49.474;8.616;2023-08-20T04:20:34;6.40;;;5.90;;
7719;SDS011;3902;49.474;8.616;2023-08-20T04:23:01;5.10;;;4.70;;
7719;SDS011;3902;49.474;8.616;2023-08-20T04:25:26;5.93;;;5.40;;
7719;SDS011;3902;49.474;8.616;2023-08-20T04:27:52;6.47;;;4.90;;
7719;SDS011;3902;49.474;8.616;2023-08-20T04:30:17;5.47;;;4.97;;
7719;SDS011;3902;49.474;8.616;2023-08-20T04:32:43;5.93;;;5.23;;
7719;SDS011;3902;49.474;8.616;2023-08-20T04:35:08;5.90;;;5.30;;
7719;SDS011;3902;49.474;8.616;2023-08-20T04:37:35;5.77;;;5.17;;
7719;SDS011;3902;49.474;8.616;2023-08-20T04:40:00;6.17;;;5.60;;
7719;SDS011;3902;49.474;8.616;2023-08-20T04:42:26;6.13;;;5.30;;
7719;SDS011;3902;49.474;8.616;2023-08-20T04:44:52;5.30;;;4.90;;
7719;SDS011;3902;49.474;8.616;2023-08-20T04:47:17;5.80;;;5.30;;
7719;SDS011;3902;49.474;8.616;2023-08-20T04:49:43;5.77;;;5.27;;
7719;SDS011;3902;49.474;8.616;2023-08-20T04:52:09;6.47;;;5.87;;
7719;SDS011;3902;49.474;8.616;2023-08-20T04:54:34;6.13;;;5.43;;
7719;SDS011;3902;49.474;8.616;2023-08-20T04:57:00;6.00;;;5.43;;
7719;SDS011;3902;49.474;8.616;2023-08-20T04:59:25;5.53;;;5.03;;
7719;SDS011;3902;49.474;8.616;2023-08-20T05:01:51;6.43;;;5.80;;
7719;SDS011;3902;49.474;8.616;2023-08-20T05:04:17;5.53;;;4.93;;
7719;SDS011;3902;49.474;8.616;2023-08-20T05:06:42;5.40;;;5.00;;
7719;SDS011;3902;49.474;8.616;2023-08-20T05:09:08;6.07;;;5.43;;
7719;SDS011;3902;49.474;8.616;2023-08-20T05:11:33;5.90;;;5.33;;
7719;SDS011;3902;49.474;8.616;2023-08-20T05:13:59;6.37;;;5.77;;
7719;SDS011;3902;49.474;8.616;2023-08-20T05:16:24;6.03;;;5.47;;
7719;SDS011;3902;49.474;8.616;2023-08-20T05:18:50;6.03;;;5.47;;
7719;SDS011;3902;49.474;8.616;2023-08-20T05:21:15;6.00;;;5.50;;
7719;SDS011;3902;49.474;8.616;2023-08-20T05:23:41;4.97;;;4.57;;
7719;SDS011;3902;49.474;8.616;2023-08-20T05:26:07;6.50;;;5.90;;
7719;SDS011;3902;49.474;8.616;2023-08-20T05:28:33;5.77;;;5.27;;
7719;SDS011;3902;49.474;8.616;2023-08-20T05:30:59;7.67;;;5.60;;
7719;SDS011;3902;49.474;8.616;2023-08-20T05:33:25;5.73;;;4.70;;
7719;SDS011;3902;49.474;8.616;2023-08-20T05:35:51;5.20;;;4.80;;
7719;SDS011;3902;49.474;8.616;2023-08-20T05:38:17;6.40;;;5.80;;
7719;SDS011;3902;49.474;8.616;2023-08-20T05:40:43;5.93;;;5.40;;
7719;SDS011;3902;49.474;8.616;2023-08-20T05:43:09;5.83;;;5.33;;
7719;SDS011;3902;49.474;8.616;2023-08-20T05:45:34;5.80;;;5.30;;
7719;SDS011;3902;49.474;8.616;2023-08-20T05:48:00;6.17;;;5.53;;
7719;SDS011;3902;49.474;8.616;2023-08-20T05:50:26;6.40;;;5.80;;
7719;SDS011;3902;49.474;8.616;2023-08-20T05:52:51;6.30;;;5.73;;
7719;SDS011;3902;49.474;8.616;2023-08-20T05:55:17;6.07;;;5.47;;
7719;SDS011;3902;49.474;8.616;2023-08-20T05:57:43;6.00;;;5.50;;
7719;SDS011;3902;49.474;8.616;2023-08-20T06:00:09;6.17;;;5.60;;
7719;SDS011;3902;49.474;8.616;2023-08-20T06:02:35;5.60;;;5.10;;
7719;SDS011;3902;49.474;8.616;2023-08-20T06:05:01;5.87;;;5.33;;
7719;SDS011;3902;49.474;8.616;2023-08-20T06:07:29;6.23;;;5.60;;
7719;SDS011;3902;49.474;8.616;2023-08-20T06:09:58;6.37;;;5.73;;
7719;SDS011;3902;49.474;8.616;2023-08-20T06:12:23;6.03;;;5.40;;
7719;SDS011;3902;49.474;8.616;2023-08-20T06:14:49;5.23;;;4.83;;
7719;SDS011;3902;49.474;8.616;2023-08-20T06:17:14;6.40;;;5.53;;
7719;SDS011;3902;49.474;8.616;2023-08-20T06:19:41;6.33;;;5.83;;
7719;SDS011;3902;49.474;8.616;2023-08-20T06:22:06;6.53;;;4.93;;
7719;SDS011;3902;49.474;8.616;2023-08-20T06:24:32;6.00;;;5.30;;
7719;SDS011;3902;49.474;8.616;2023-08-20T06:26:57;5.97;;;5.43;;
7719;SDS011;3902;49.474;8.616;2023-08-20T06:29:23;5.40;;;4.90;;
7719;SDS011;3902;49.474;8.616;2023-08-20T06:31:49;5.00;;;4.60;;
7719;SDS011;3902;49.474;8.616;2023-08-20T06:34:15;5.83;;;5.23;;
7719;SDS011;3902;49.474;8.616;2023-08-20T06:36:41;5.53;;;5.13;;
7719;SDS011;3902;49.474;8.616;2023-08-20T06:39:07;5.10;;;4.63;;
7719;SDS011;3902;49.474;8.616;2023-08-20T06:41:33;5.20;;;4.70;;
7719;SDS011;3902;49.474;8.616;2023-08-20T06:43:58;5.47;;;4.97;;
7719;SDS011;3902;49.474;8.616;2023-08-20T06:46:24;5.97;;;5.03;;
7719;SDS011;3902;49.474;8.616;2023-08-20T06:48:50;5.83;;;5.20;;
7719;SDS011;3902;49.474;8.616;2023-08-20T06:51:18;5.90;;;5.40;;
7719;SDS011;3902;49.474;8.616;2023-08-20T06:53:45;5.70;;;5.20;;
7719;SDS011;3902;49.474;8.616;2023-08-20T06:56:10;5.40;;;4.90;;
7719;SDS011;3902;49.474;8.616;2023-08-20T06:58:37;5.87;;;5.23;;
7719;SDS011;3902;49.474;8.616;2023-08-20T07:01:03;7.10;;;5.47;;
7719;SDS011;3902;49.474;8.616;2023-08-20T07:03:36;8.40;;;5.23;;
7719;SDS011;3902;49.474;8.616;2023-08-20T07:06:03;5.63;;;5.13;;
7719;SDS011;3902;49.474;8.616;2023-08-20T07:08:29;5.40;;;4.90;;
7719;SDS011;3902;49.474;8.616;2023-08-20T07:10:55;4.80;;;4.37;;
7719;SDS011;3902;49.474;8.616;2023-08-20T07:13:21;5.27;;;4.87;;
7719;SDS011;3902;49.474;8.616;2023-08-20T07:15:47;4.90;;;4.50;;
7719;SDS011;3902;49.474;8.616;2023-08-20T07:18:14;6.30;;;5.03;;
7719;SDS011;3902;49.474;8.616;2023-08-20T07:20:40;5.80;;;4.53;;
7719;SDS011;3902;49.474;8.616;2023-08-20T07:23:09;7.97;;;5.83;;
7719;SDS011;3902;49.474;8.616;2023-08-20T07:25:36;8.27;;;5.43;;
7719;SDS011;3902;49.474;8.616;2023-08-20T07:28:03;5.57;;;4.70;;
7719;SDS011;3902;49.474;8.616;2023-08-20T07:30:29;5.33;;;4.83;;
7719;SDS011;3902;49.474;8.616;2023-08-20T07:32:55;6.07;;;5.50;;
7719;SDS011;3902;49.474;8.616;2023-08-20T07:35:21;4.77;;;4.37;;
7719;SDS011;3902;49.474;8.616;2023-08-20T07:37:46;4.97;;;4.60;;
7719;SDS011;3902;49.474;8.616;2023-08-20T07:40:12;5.23;;;4.73;;
7719;SDS011;3902;49.474;8.616;2023-08-20T07:42:40;5.60;;;5.10;;
7719;SDS011;3902;49.474;8.616;2023-08-20T07:45:06;5.87;;;5.37;;
7719;SDS011;3902;49.474;8.616;2023-08-20T07:47:33;6.00;;;5.30;;
7719;SDS011;3902;49.474;8.616;2023-08-20T07:50:01;5.37;;;4.93;;
7719;SDS011;3902;49.474;8.616;2023-08-20T07:52:27;5.47;;;5.00;;
7719;SDS011;3902;49.474;8.616;2023-08-20T07:54:53;5.00;;;4.50;;
7719;SDS011;3902;49.474;8.616;2023-08-20T07:57:18;5.33;;;4.87;;
7719;SDS011;3902;49.474;8.616;2023-08-20T07:59:44;8.27;;;5.00;;
7719;SDS011;3902;49.474;8.616;2023-08-20T08:02:10;5.93;;;5.43;;
7719;SDS011;3902;49.474;8.616;2023-08-20T08:04:35;4.90;;;4.50;;
7719;SDS011;3902;49.474;8.616;2023-08-20T08:07:01;6.07;;;5.00;;
7719;SDS011;3902;49.474;8.616;2023-08-20T08:09:28;6.37;;;5.40;;
7719;SDS011;3902;49.474;8.616;2023-08-20T08:11:56;5.77;;;5.27;;
7719;SDS011;3902;49.474;8.616;2023-08-20T08:14:22;5.57;;;4.80;;
7719;SDS011;3902;49.474;8.616;2023-08-20T08:16:48;5.07;;;4.63;;
7719;SDS011;3902;49.474;8.616;2023-08-20T08:19:14;5.93;;;5.40;;
7719;SDS011;3902;49.474;8.616;2023-08-20T08:21:40;6.13;;;5.63;;
7719;SDS011;3902;49.474;8.616;2023-08-20T08:24:06;5.60;;;5.10;;
7719;SDS011;3902;49.474;8.616;2023-08-20T08:26:33;5.50;;;5.00;;
7719;SDS011;3902;49.474;8.616;2023-08-20T08:28:59;5.13;;;4.73;;
7719;SDS011;3902;49.474;8.616;2023-08-20T08:31:24;5.30;;;4.77;;
7719;SDS011;3902;49.474;8.616;2023-08-20T08:33:50;4.70;;;4.30;;
7719;SDS011;3902;49.474;8.616;2023-08-20T08:36:15;6.50;;;4.50;;
7719;SDS011;3902;49.474;8.616;2023-08-20T08:38:42;5.10;;;4.60;;
7719;SDS011;3902;49.474;8.616;2023-08-20T08:41:09;4.70;;;4.37;;
7719;SDS011;3902;49.474;8.616;2023-08-20T08:43:37;4.87;;;4.40;;
7719;SDS011;3902;49.474;8.616;2023-08-20T08:46:03;4.63;;;4.23;;
7719;SDS011;3902;49.474;8.616;2023-08-20T08:48:33;5.47;;;5.07;;
7719;SDS011;3902;49.474;8.616;2023-08-20T08:51:00;6.57;;;4.90;;
7719;SDS011;3902;49.474;8.616;2023-08-20T08:53:26;4.97;;;4.47;;
7719;SDS011;3902;49.474;8.616;2023-08-20T08:55:52;7.10;;;4.87;;
7719;SDS011;3902;49.474;8.616;2023-08-20T08:58:17;6.27;;;4.90;;
7719;SDS011;3902;49.474;8.616;2023-08-20T09:00:43;7.23;;;4.83;;
7719;SDS011;3902;49.474;8.616;2023-08-20T09:03:08;4.63;;;4.23;;
7719;SDS011;3902;49.474;8.616;2023-08-20T09:05:45;5.30;;;4.70;;
7719;SDS011;3902;49.474;8.616;2023-08-20T09:08:18;5.20;;;4.70;;
7719;SDS011;3902;49.474;8.616;2023-08-20T09:10:44;5.23;;;4.83;;
7719;SDS011;3902;49.474;8.616;2023-08-20T09:13:10;4.90;;;4.50;;
7719;SDS011;3902;49.474;8.616;2023-08-20T09:15:36;5.53;;;4.93;;
7719;SDS011;3902;49.474;8.616;2023-08-20T09:18:02;4.93;;;4.53;;
7719;SDS011;3902;49.474;8.616;2023-08-20T09:20:35;5.87;;;5.30;;
7719;SDS011;3902;49.474;8.616;2023-08-20T09:23:01;7.70;;;5.50;;
7719;SDS011;3902;49.474;8.616;2023-08-20T09:25:27;5.40;;;4.97;;
7719;SDS011;3902;49.474;8.616;2023-08-20T09:27:53;5.50;;;5.10;;
7719;SDS011;3902;49.474;8.616;2023-08-20T09:30:19;5.23;;;4.83;;
7719;SDS011;3902;49.474;8.616;2023-08-20T09:32:45;5.40;;;4.90;;
7719;SDS011;3902;49.474;8.616;2023-08-20T09:35:27;5.17;;;4.77;;
7719;SDS011;3902;49.474;8.616;2023-08-20T09:37:53;5.23;;;4.83;;
7719;SDS011;3902;49.474;8.616;2023-08-20T09:40:24;5.07;;;4.63;;
7719;SDS011;3902;49.474;8.616;2023-08-20T09:42:51;5.27;;;4.77;;
7719;SDS011;3902;49.474;8.616;2023-08-20T09:45:18;4.70;;;4.20;;
7719;SDS011;3902;49.474;8.616;2023-08-20T09:47:44;4.93;;;4.50;;
7719;SDS011;3902;49.474;8.616;2023-08-20T09:50:13;4.77;;;4.37;;
7719;SDS011;3902;49.474;8.616;2023-08-20T09:52:48;4.60;;;4.20;;
7719;SDS011;3902;49.474;8.616;2023-08-20T09:55:22;5.10;;;4.50;;
7719;SDS011;3902;49.474;8.616;2023-08-20T09:57:50;4.87;;;4.47;;
7719;SDS011;3902;49.474;8.616;2023-08-20T10:00:17;5.03;;;4.63;;
7719;SDS011;3902;49.474;8.616;2023-08-20T10:02:42;5.17;;;4.77;;
7719;SDS011;3902;49.474;8.616;2023-08-20T10:05:08;5.00;;;4.60;;
7719;SDS011;3902;49.474;8.616;2023-08-20T10:07:35;5.27;;;4.83;;
7719;SDS011;3902;49.474;8.616;2023-08-20T10:10:03;5.80;;;4.20;;
7719;SDS011;3902;49.474;8.616;2023-08-20T10:12:30;6.10;;;4.30;;
7719;SDS011;3902;49.474;8.616;2023-08-20T10:14:56;4.57;;;4.17;;
7719;SDS011;3902;49.474;8.616;2023-08-20T10:17:23;5.93;;;4.30;;
7719;SDS011;3902;49.474;8.616;2023-08-20T10:19:50;5.27;;;4.77;;
7719;SDS011;3902;49.474;8.616;2023-08-20T10:22:17;5.57;;;5.07;;
7719;SDS011;3902;49.474;8.616;2023-08-20T10:24:49;4.90;;;4.40;;
7719;SDS011;3902;49.474;8.616;2023-08-20T10:27:24;5.30;;;4.80;;
7719;SDS011;3902;49.474;8.616;2023-08-20T10:29:56;5.63;;;5.03;;
7719;SDS011;3902;49.474;8.616;2023-08-20T10:35:09;5.13;;;4.73;;
7719;SDS011;3902;49.474;8.616;2023-08-20T10:37:34;5.50;;;4.40;;
7719;SDS011;3902;49.474;8.616;2023-08-20T10:40:02;5.23;;;4.73;;
7719;SDS011;3902;49.474;8.616;2023-08-20T10:42:29;5.20;;;4.70;;
7719;SDS011;3902;49.474;8.616;2023-08-20T10:45:07;5.00;;;4.60;;
7719;SDS011;3902;49.474;8.616;2023-08-20T10:47:43;5.23;;;4.80;;
7719;SDS011;3902;49.474;8.616;2023-08-20T10:50:10;5.30;;;4.33;;
7719;SDS011;3902;49.474;8.616;2023-08-20T10:52:49;4.97;;;4.57;;
7719;SDS011;3902;49.474;8.616;2023-08-20T10:55:22;4.33;;;4.00;;
7719;SDS011;3902;49.474;8.616;2023-08-20T10:57:57;5.00;;;4.50;;
7719;SDS011;3902;49.474;8.616;2023-08-20T11:00:24;4.17;;;3.87;;
7719;SDS011;3902;49.474;8.616;2023-08-20T11:02:51;4.70;;;4.30;;
7719;SDS011;3902;49.474;8.616;2023-08-20T11:05:21;4.73;;;4.33;;
7719;SDS011;3902;49.474;8.616;2023-08-20T11:07:47;4.80;;;4.40;;
7719;SDS011;3902;49.474;8.616;2023-08-20T11:10:14;4.40;;;4.10;;
7719;SDS011;3902;49.474;8.616;2023-08-20T11:12:41;5.18;;;4.65;;
7719;SDS011;3902;49.474;8.616;2023-08-20T11:15:08;4.80;;;4.40;;
7719;SDS011;3902;49.474;8.616;2023-08-20T11:17:55;4.40;;;4.00;;
7719;SDS011;3902;49.474;8.616;2023-08-20T11:20:21;4.88;;;4.32;;
7719;SDS011;3902;49.474;8.616;2023-08-20T11:22:47;4.45;;;4.15;;
7719;SDS011;3902;49.474;8.616;2023-08-20T11:25:13;4.10;;;3.80;;
7719;SDS011;3902;49.474;8.616;2023-08-20T11:27:41;4.28;;;3.88;;
7719;SDS011;3902;49.474;8.616;2023-08-20T11:30:09;3.95;;;3.58;;
7719;SDS011;3902;49.474;8.616;2023-08-20T11:32:37;4.50;;;3.78;;
7719;SDS011;3902;49.474;8.616;2023-08-20T11:35:03;3.78;;;3.45;;
7719;SDS011;3902;49.474;8.616;2023-08-20T11:37:30;3.53;;;3.28;;
7719;SDS011;3902;49.474;8.616;2023-08-20T11:39:55;3.55;;;3.28;;
7719;SDS011;3902;49.474;8.616;2023-08-20T11:42:21;4.07;;;3.67;;
7719;SDS011;3902;49.474;8.616;2023-08-20T11:44:49;4.57;;;4.28;;
7719;SDS011;3902;49.474;8.616;2023-08-20T11:47:17;4.57;;;4.18;;
7719;SDS011;3902;49.474;8.616;2023-08-20T11:49:43;4.90;;;4.47;;
7719;SDS011;3902;49.474;8.616;2023-08-20T11:52:09;5.68;;;4.22;;
7719;SDS011;3902;49.474;8.616;2023-08-20T11:54:35;4.72;;;4.32;;
7719;SDS011;3902;49.474;8.616;2023-08-20T11:57:02;4.50;;;4.10;;
7719;SDS011;3902;49.474;8.616;2023-08-20T11:59:28;4.85;;;4.10;;
7719;SDS011;3902;49.474;8.616;2023-08-20T12:01:58;4.40;;;3.72;;
7719;SDS011;3902;49.474;8.616;2023-08-20T12:04:29;4.20;;;3.42;;
7719;SDS011;3902;49.474;8.616;2023-08-20T12:09:51;4.05;;;3.70;;
7719;SDS011;3902;49.474;8.616;2023-08-20T12:12:19;4.07;;;3.78;;
7719;SDS011;3902;49.474;8.616;2023-08-20T12:14:45;10.15;;;3.78;;
7719;SDS011;3902;49.474;8.616;2023-08-20T12:17:11;5.22;;;4.53;;
7719;SDS011;3902;49.474;8.616;2023-08-20T12:19:36;4.05;;;3.75;;
7719;SDS011;3902;49.474;8.616;2023-08-20T12:22:02;4.03;;;3.47;;
7719;SDS011;3902;49.474;8.616;2023-08-20T12:24:28;3.80;;;3.50;;
7719;SDS011;3902;49.474;8.616;2023-08-20T12:26:54;4.22;;;3.85;;
7719;SDS011;3902;49.474;8.616;2023-08-20T12:29:19;4.15;;;3.72;;
7719;SDS011;3902;49.474;8.616;2023-08-20T12:31:45;4.20;;;3.90;;
7719;SDS011;3902;49.474;8.616;2023-08-20T12:34:11;5.05;;;3.83;;
7719;SDS011;3902;49.474;8.616;2023-08-20T12:36:36;6.07;;;3.97;;
7719;SDS011;3902;49.474;8.616;2023-08-20T12:39:02;4.22;;;3.92;;
7719;SDS011;3902;49.474;8.616;2023-08-20T12:41:29;4.25;;;3.75;;
7719;SDS011;3902;49.474;8.616;2023-08-20T12:43:55;4.53;;;3.70;;
7719;SDS011;3902;49.474;8.616;2023-08-20T12:46:20;4.40;;;3.80;;
7719;SDS011;3902;49.474;8.616;2023-08-20T12:48:46;4.20;;;3.90;;
7719;SDS011;3902;49.474;8.616;2023-08-20T12:51:12;4.53;;;4.10;;
7719;SDS011;3902;49.474;8.616;2023-08-20T12:53:39;4.32;;;3.95;;
7719;SDS011;3902;49.474;8.616;2023-08-20T12:56:05;4.22;;;3.83;;
7719;SDS011;3902;49.474;8.616;2023-08-20T12:58:30;4.10;;;3.80;;
7719;SDS011;3902;49.474;8.616;2023-08-20T13:00:56;4.10;;;3.70;;
7719;SDS011;3902;49.474;8.616;2023-08-20T13:03:21;4.18;;;3.42;;
7719;SDS011;3902;49.474;8.616;2023-08-20T13:05:47;3.72;;;3.42;;
7719;SDS011;3902;49.474;8.616;2023-08-20T13:08:13;4.10;;;3.70;;
7719;SDS011;3902;49.474;8.616;2023-08-20T13:10:39;4.32;;;3.67;;
7719;SDS011;3902;49.474;8.616;2023-08-20T13:13:05;5.07;;;4.15;;
7719;SDS011;3902;49.474;8.616;2023-08-20T13:15:35;4.75;;;3.72;;
7719;SDS011;3902;49.474;8.616;2023-08-20T13:18:01;6.82;;;3.88;;
7719;SDS011;3902;49.474;8.616;2023-08-20T13:20:27;3.55;;;3.25;;
7719;SDS011;3902;49.474;8.616;2023-08-20T13:22:53;4.20;;;3.90;;
7719;SDS011;3902;49.474;8.616;2023-08-20T13:25:18;3.45;;;3.15;;
7719;SDS011;3902;49.474;8.616;2023-08-20T13:27:46;3.75;;;3.42;;
7719;SDS011;3902;49.474;8.616;2023-08-20T13:30:12;3.85;;;3.55;;
7719;SDS011;3902;49.474;8.616;2023-08-20T13:32:38;3.85;;;3.55;;
7719;SDS011;3902;49.474;8.616;2023-08-20T13:35:04;5.70;;;3.90;;
7719;SDS011;3902;49.474;8.616;2023-08-20T13:37:30;3.72;;;3.42;;
7719;SDS011;3902;49.474;8.616;2023-08-20T13:39:59;3.65;;;3.35;;
7719;SDS011;3902;49.474;8.616;2023-08-20T13:42:25;4.20;;;3.80;;
7719;SDS011;3902;49.474;8.616;2023-08-20T13:44:51;3.78;;;3.45;;
7719;SDS011;3902;49.474;8.616;2023-08-20T13:47:16;4.35;;;3.53;;
7719;SDS011;3902;49.474;8.616;2023-08-20T13:49:42;3.53;;;2.95;;
7719;SDS011;3902;49.474;8.616;2023-08-20T13:52:08;3.70;;;3.40;;
7719;SDS011;3902;49.474;8.616;2023-08-20T13:54:35;4.43;;;3.58;;
7719;SDS011;3902;49.474;8.616;2023-08-20T13:57:01;3.55;;;3.25;;
7719;SDS011;3902;49.474;8.616;2023-08-20T13:59:28;3.53;;;3.22;;
7719;SDS011;3902;49.474;8.616;2023-08-20T14:01:54;5.32;;;3.85;;
7719;SDS011;3902;49.474;8.616;2023-08-20T14:04:20;3.88;;;3.47;;
7719;SDS011;3902;49.474;8.616;2023-08-20T14:06:45;4.13;;;3.50;;
7719;SDS011;3902;49.474;8.616;2023-08-20T14:09:10;3.67;;;3.38;;
7719;SDS011;3902;49.474;8.616;2023-08-20T14:11:36;8.30;;;3.40;;
7719;SDS011;3902;49.474;8.616;2023-08-20T14:14:02;3.40;;;3.10;;
7719;SDS011;3902;49.474;8.616;2023-08-20T14:16:27;4.13;;;3.72;;
7719;SDS011;3902;49.474;8.616;2023-08-20T14:18:53;3.95;;;3.55;;
7719;SDS011;3902;49.474;8.616;2023-08-20T14:21:18;5.97;;;3.53;;
7719;SDS011;3902;49.474;8.616;2023-08-20T14:23:44;4.18;;;3.78;;
7719;SDS011;3902;49.474;8.616;2023-08-20T14:26:09;3.80;;;3.40;;
7719;SDS011;3902;49.474;8.616;2023-08-20T14:28:35;3.60;;;3.30;;
7719;SDS011;3902;49.474;8.616;2023-08-20T14:31:03;4.13;;;3.35;;
7719;SDS011;3902;49.474;8.616;2023-08-20T14:33:30;3.58;;;3.28;;
7719;SDS011;3902;49.474;8.616;2023-08-20T14:35:56;4.00;;;3.60;;
7719;SDS011;3902;49.474;8.616;2023-08-20T14:38:21;3.55;;;3.25;;
7719;SDS011;3902;49.474;8.616;2023-08-20T14:40:47;3.53;;;3.22;;
7719;SDS011;3902;49.474;8.616;2023-08-20T14:43:12;3.45;;;3.15;;
7719;SDS011;3902;49.474;8.616;2023-08-20T14:45:38;3.95;;;3.65;;
7719;SDS011;3902;49.474;8.616;2023-08-20T14:48:04;3.63;;;3.33;;
7719;SDS011;3902;49.474;8.616;2023-08-20T14:50:29;3.60;;;3.25;;
7719;SDS011;3902;49.474;8.616;2023-08-20T14:52:56;3.60;;;3.30;;
7719;SDS011;3902;49.474;8.616;2023-08-20T14:55:22;3.40;;;3.17;;
7719;SDS011;3902;49.474;8.616;2023-08-20T14:57:47;3.90;;;3.60;;
7719;SDS011;3902;49.474;8.616;2023-08-20T15:00:13;6.18;;;3.10;;
7719;SDS011;3902;49.474;8.616;2023-08-20T15:02:42;3.45;;;3.25;;
7719;SDS011;3902;49.474;8.616;2023-08-20T15:05:09;4.15;;;3.20;;
7719;SDS011;3902;49.474;8.616;2023-08-20T15:07:35;3.38;;;3.08;;
7719;SDS011;3902;49.474;8.616;2023-08-20T15:10:01;3.60;;;3.15;;
7719;SDS011;3902;49.474;8.616;2023-08-20T15:12:32;3.70;;;3.40;;
7719;SDS011;3902;49.474;8.616;2023-08-20T15:14:58;5.93;;;3.58;;
7719;SDS011;3902;49.474;8.616;2023-08-20T15:17:24;3.80;;;3.42;;
7719;SDS011;3902;49.474;8.616;2023-08-20T15:19:50;4.35;;;3.35;;
7719;SDS011;3902;49.474;8.616;2023-08-20T15:22:15;3.38;;;3.13;;